Time;durP1;ratioP1;P1;durP2;ratioP2;P2;SDS_P1;SDS_P2;PMS_P1;PMS_P2;Temp;Humidity;BMP_temperature;BMP_pressure;BME280_temperature;BME280_humidity;BME280_pressure;Samples;Min_cycle;Max_cycle;Signal;HPM_P1;HPM_P2
2022/07/01 00:01:55;;;;;;;;;;;;;;;23.56;48.80;94922.16;4987214;28;19922;-86
2022/07/01 00:04:21;;;;;;;;;;;;;;;23.53;49.53;94928.09;5024664;23;19937;-85
2022/07/01 00:06:46;;;;;;;;;;;;;;;23.49;50.33;94916.56;4986653;28;19945;-85
2022/07/01 00:09:11;;;;;;;;;;;;;;;23.45;50.13;94920.91;4973831;28;19977;-86
2022/07/01 00:11:37;;;;;;;;;;;;;;;23.42;50.43;94926.81;4989804;28;19922;-85
2022/07/01 00:16:34;;;;;;;;;;;;;;;23.32;50.77;94927.91;5012011;23;20002;-84
2022/07/01 00:19:02;;;;;;;;;;;;;;;23.25;50.89;94936.31;4971990;28;19926;-86
2022/07/01 00:21:28;;;;;;;;;;;;;;;23.18;51.15;94930.69;5034735;23;19926;-87
2022/07/01 00:26:22;;;;;;;;;;;;;;;23.04;51.98;94938.75;5067876;23;19925;-85
2022/07/01 00:28:47;;;;;;;;;;;;;;;23.00;52.26;94942.34;5003144;28;19980;-86
2022/07/01 00:31:12;;;;;;;;;;;;;;;22.92;52.91;94946.50;5004329;28;19933;-85
2022/07/01 00:33:38;;;;;;;;;;;;;;;22.86;53.47;94949.59;4986205;28;19918;-85
2022/07/01 00:36:03;;;;;;;;;;;;;;;22.82;53.13;94945.97;4988459;28;20016;-85
2022/07/01 00:38:28;;;;;;;;;;;;;;;22.74;53.76;94945.63;4986322;28;19922;-85
2022/07/01 00:40:54;;;;;;;;;;;;;;;22.67;53.63;94939.97;5021040;23;19936;-84
2022/07/01 00:43:22;;;;;;;;;;;;;;;22.64;54.06;94945.91;4995698;28;19937;-85
2022/07/01 00:45:48;;;;;;;;;;;;;;;22.58;54.34;94952.41;4996456;28;19925;-85
2022/07/01 00:48:14;;;;;;;;;;;;;;;22.51;54.57;94949.41;4997784;28;19922;-86
2022/07/01 00:50:39;;;;;;;;;;;;;;;22.50;55.13;94955.00;4995905;28;19922;-85
2022/07/01 00:53:04;;;;;;;;;;;;;;;22.40;55.34;94943.56;5031293;23;19929;-85
2022/07/01 00:55:36;;;;;;;;;;;;;;;22.35;55.15;94949.00;5022548;28;20020;-84
2022/07/01 00:58:01;;;;;;;;;;;;;;;22.32;55.27;94948.81;5020204;23;19926;-85
2022/07/01 01:00:26;;;;;;;;;;;;;;;22.25;55.30;94945.81;4996469;28;19948;-85
2022/07/01 01:03:01;;;;;;;;;;;;;;;22.22;55.54;94949.06;5001432;28;19925;-85
2022/07/01 01:05:26;;;;;;;;;;;;;;;22.14;55.57;94943.41;5014029;28;20372;-85
2022/07/01 01:07:51;;;;;;;;;;;;;;;22.08;55.67;94952.53;5012476;23;20012;-85
2022/07/01 01:10:17;;;;;;;;;;;;;;;22.04;55.74;94951.56;4985631;28;19926;-85
2022/07/01 01:12:42;;;;;;;;;;;;;;;21.98;56.00;94946.69;4979829;28;19922;-85
2022/07/01 01:15:07;;;;;;;;;;;;;;;21.93;56.32;94947.56;4960828;28;19926;-85
2022/07/01 01:17:33;;;;;;;;;;;;;;;21.88;56.32;94953.00;4961762;28;20420;-85
2022/07/01 01:19:58;;;;;;;;;;;;;;;21.88;56.62;94951.13;4977274;28;19924;-85
2022/07/01 01:22:23;;;;;;;;;;;;;;;21.86;56.77;94941.91;4977089;28;19929;-85
2022/07/01 01:24:49;;;;;;;;;;;;;;;21.84;56.90;94944.09;4976677;28;19926;-86
2022/07/01 01:27:15;;;;;;;;;;;;;;;21.79;57.21;94941.53;4967700;28;20405;-85
2022/07/01 01:29:41;;;;;;;;;;;;;;;21.77;57.35;94946.34;4965761;28;19933;-85
2022/07/01 01:32:06;;;;;;;;;;;;;;;21.73;57.39;94953.31;4981060;28;19922;-85
2022/07/01 01:34:38;;;;;;;;;;;;;;;21.70;57.44;94949.41;5044587;23;20045;-84
2022/07/01 01:37:03;;;;;;;;;;;;;;;21.63;57.45;94956.19;5091103;23;19926;-85
2022/07/01 01:39:29;;;;;;;;;;;;;;;21.54;58.08;94967.47;4998080;28;19948;-84
2022/07/01 01:41:54;;;;;;;;;;;;;;;21.47;58.27;94955.72;4994210;28;19922;-84
2022/07/01 01:44:36;;;;;;;;;;;;;;;21.44;58.24;94957.09;4997286;28;20365;-84
2022/07/01 01:47:02;;;;;;;;;;;;;;;21.43;58.29;94970.63;5001775;28;19985;-85
2022/07/01 01:49:46;;;;;;;;;;;;;;;21.39;58.25;94964.34;5011314;28;20181;-85
2022/07/01 01:52:11;;;;;;;;;;;;;;;21.38;57.84;94965.44;5096686;23;19927;-86
2022/07/01 01:54:36;;;;;;;;;;;;;;;21.33;57.92;94971.63;4977330;28;20009;-85
2022/07/01 01:57:03;;;;;;;;;;;;;;;21.32;57.54;94975.34;5038147;23;19960;-85
2022/07/01 01:59:28;;;;;;;;;;;;;;;21.27;57.46;94973.56;5026242;28;19922;-84
2022/07/01 02:02:03;;;;;;;;;;;;;;;21.24;57.70;94966.22;5036386;28;19921;-84
2022/07/01 02:04:28;;;;;;;;;;;;;;;21.22;57.79;94964.94;5095018;23;19921;-85
2022/07/01 02:06:53;;;;;;;;;;;;;;;21.22;57.97;94965.72;5005295;28;19930;-85
2022/07/01 02:09:18;;;;;;;;;;;;;;;21.20;58.01;94967.09;4995704;28;19918;-85
2022/07/01 02:11:44;;;;;;;;;;;;;;;21.18;59.23;94967.38;5118971;23;20313;-86
2022/07/01 02:14:09;;;;;;;;;;;;;;;21.17;58.29;94972.97;5003710;28;19972;-86
2022/07/01 02:16:34;;;;;;;;;;;;;;;21.21;59.45;94982.66;4986784;28;19921;-85
2022/07/01 02:18:59;;;;;;;;;;;;;;;21.19;58.43;94981.41;5003479;28;20008;-85
2022/07/01 02:21:25;;;;;;;;;;;;;;;21.19;58.13;94982.19;5004888;28;19937;-84
2022/07/01 02:23:52;;;;;;;;;;;;;;;21.17;58.04;94980.91;5005290;28;19921;-84
2022/07/01 02:26:17;;;;;;;;;;;;;;;21.15;58.29;94980.38;4973655;28;19928;-85
2022/07/01 02:28:42;;;;;;;;;;;;;;;21.15;58.35;94986.50;4988141;28;20009;-86
2022/07/01 02:31:08;;;;;;;;;;;;;;;21.14;58.73;94990.19;4987517;28;19928;-85
2022/07/01 02:33:33;;;;;;;;;;;;;;;21.11;58.39;94995.28;4995565;23;19940;-86
2022/07/01 02:38:28;;;;;;;;;;;;;;;21.08;58.97;95001.16;4974528;28;19933;-83
2022/07/01 02:40:54;;;;;;;;;;;;;;;21.04;58.97;94994.91;4975847;28;19922;-83
2022/07/01 02:43:19;;;;;;;;;;;;;;;21.04;59.50;94997.53;4961567;28;19969;-83
2022/07/01 02:45:44;;;;;;;;;;;;;;;21.04;59.28;94995.69;4956637;29;19934;-83
2022/07/01 02:48:22;;;;;;;;;;;;;;;21.04;59.22;95002.84;4955421;28;19923;-83
2022/07/01 02:50:47;;;;;;;;;;;;;;;21.04;59.38;95006.25;4962003;28;19929;-84
2022/07/01 02:53:12;;;;;;;;;;;;;;;21.04;59.05;95006.25;5008986;23;19997;-84
2022/07/01 02:55:37;;;;;;;;;;;;;;;21.05;59.29;95007.81;5005351;28;19956;-83
2022/07/01 02:58:04;;;;;;;;;;;;;;;21.02;59.93;95008.41;5006274;28;19921;-83
2022/07/01 03:00:29;;;;;;;;;;;;;;;20.99;60.07;95009.00;4998168;28;19933;-84
2022/07/01 03:02:55;;;;;;;;;;;;;;;20.97;59.98;95011.91;4994525;28;19926;-84
2022/07/01 03:05:20;;;;;;;;;;;;;;;20.98;59.49;95015.34;4994148;28;19924;-83
2022/07/01 03:07:46;;;;;;;;;;;;;;;20.97;59.75;95019.84;5166041;23;19929;-84
2022/07/01 03:10:11;;;;;;;;;;;;;;;20.98;59.67;95023.28;5034556;28;19959;-83
2022/07/01 03:12:38;;;;;;;;;;;;;;;20.93;60.10;95021.50;5028284;28;19929;-85
2022/07/01 03:17:32;;;;;;;;;;;;;;;21.03;60.00;95033.78;5077778;23;19926;-83
2022/07/01 03:19:57;;;;;;;;;;;;;;;21.11;59.67;95037.59;5091113;23;19937;-85
2022/07/01 03:22:23;;;;;;;;;;;;;;;21.14;59.38;95029.84;4997767;28;19918;-84
2022/07/01 03:24:49;;;;;;;;;;;;;;;21.15;59.41;95034.09;5079792;23;20622;-83
2022/07/01 03:29:49;;;;;;;;;;;;;;;21.28;59.02;95035.19;5193801;23;19933;-86
2022/07/01 03:32:14;;;;;;;;;;;;;;;21.32;58.95;95033.53;4999433;28;19921;-84
2022/07/01 03:34:42;;;;;;;;;;;;;;;21.39;58.90;95039.22;4993353;28;20385;-85
2022/07/01 03:37:07;;;;;;;;;;;;;;;21.44;58.82;95039.09;4992947;28;19922;-84
2022/07/01 03:39:33;;;;;;;;;;;;;;;21.49;58.35;95046.19;4994488;28;19922;-83
2022/07/01 03:41:58;;;;;;;;;;;;;;;21.54;58.69;95035.50;4998216;28;19940;-83
2022/07/01 03:44:23;;;;;;;;;;;;;;;21.62;58.60;95031.34;4982603;28;19922;-82
2022/07/01 03:46:49;;;;;;;;;;;;;;;21.69;58.52;95026.47;4978355;28;19926;-83
2022/07/01 03:49:23;;;;;;;;;;;;;;;21.79;58.12;95028.88;4993238;28;19953;-82
2022/07/01 03:51:49;;;;;;;;;;;;;;;21.87;57.81;95033.50;4993704;28;19925;-81
2022/07/01 03:54:29;;;;;;;;;;;;;;;21.89;57.51;95041.91;4994541;28;19980;-85
2022/07/01 03:56:55;;;;;;;;;;;;;;;22.00;57.23;95040.63;5047087;23;20406;-83
2022/07/01 03:59:20;;;;;;;;;;;;;;;22.09;56.90;95043.38;5004667;28;19928;-83
2022/07/01 04:01:45;;;;;;;;;;;;;;;22.17;56.74;95029.44;5002780;28;19980;-82
2022/07/01 04:04:11;;;;;;;;;;;;;;;22.35;56.83;95027.69;5003694;28;20004;-86
2022/07/01 04:06:36;;;;;;;;;;;;;;;23.14;55.51;95038.50;5003943;28;19992;-85
2022/07/01 04:09:12;;;;;;;;;;;;;;;25.42;49.43;95033.47;5032027;23;19937;-86
2022/07/01 04:17:07;;;;;;;;;;;;;;;32.93;32.07;95040.44;4976975;28;19929;-86
2022/07/01 04:19:33;;;;;;;;;;;;;;;34.68;28.89;95039.84;5009976;23;19930;-87
2022/07/01 04:24:48;;;;;;;;;;;;;;;37.85;24.53;95037.97;5005590;28;19932;-87
2022/07/01 04:27:13;;;;;;;;;;;;;;;39.02;23.09;95040.56;4986180;28;19921;-87
2022/07/01 04:29:39;;;;;;;;;;;;;;;40.32;21.63;95038.13;5003468;28;19975;-88
2022/07/01 04:32:05;;;;;;;;;;;;;;;41.40;19.57;95034.75;5004465;28;19922;-88
2022/07/01 04:34:30;;;;;;;;;;;;;;;42.41;18.89;95034.53;5060241;23;19925;-88
2022/07/01 04:36:55;;;;;;;;;;;;;;;43.25;17.61;95036.03;4974491;28;20661;-89
2022/07/01 04:39:21;;;;;;;;;;;;;;;43.81;17.48;95043.69;4974557;28;19929;-89
2022/07/01 04:42:01;;;;;;;;;;;;;;;44.59;16.47;95038.28;4956988;28;20000;-89
2022/07/01 04:44:27;;;;;;;;;;;;;;;45.27;15.20;95033.00;4975342;28;20557;-88
2022/07/01 04:46:53;;;;;;;;;;;;;;;45.58;14.53;95041.19;4980781;23;19937;-88
2022/07/01 04:49:38;;;;;;;;;;;;;;;46.25;14.05;95042.38;4994723;28;19925;-88
2022/07/01 04:52:03;;;;;;;;;;;;;;;46.52;13.79;95044.34;4984598;28;20005;-89
2022/07/01 04:54:29;;;;;;;;;;;;;;;46.87;13.39;95042.78;4974726;28;20005;-89
2022/07/01 04:56:54;;;;;;;;;;;;;;;47.29;13.34;95038.53;4957064;28;20065;-89
2022/07/01 04:59:20;;;;;;;;;;;;;;;48.15;12.87;95044.16;4955689;28;19922;-89
2022/07/01 05:01:45;;;;;;;;;;;;;;;48.63;13.01;95036.56;4974212;28;19948;-89
2022/07/01 05:04:23;;;;;;;;;;;;;;;49.09;11.90;95036.09;4978914;28;19922;-88
2022/07/01 05:07:50;;;;;;;;;;;;;;;49.62;11.44;95039.88;4958386;28;20047;-87
2022/07/01 05:09:58;;;;;;;;;;;;;;;50.19;11.47;95031.84;4971161;28;19922;-88
2022/07/01 05:12:24;;;;;;;;;;;;;;;50.81;11.26;95036.03;4974092;28;19926;-87
2022/07/01 05:14:49;;;;;;;;;;;;;;;51.28;10.92;95039.44;4973644;28;19922;-86
2022/07/01 05:17:14;;;;;;;;;;;;;;;51.48;10.62;95036.56;4955610;28;19926;-87
2022/07/01 05:22:24;;;;;;;;;;;;;;;52.39;9.60;95044.03;4959747;28;20004;-88
2022/07/01 05:24:49;;;;;;;;;;;;;;;52.87;9.23;95043.13;4940542;28;19926;-88
2022/07/01 05:27:14;;;;;;;;;;;;;;;53.30;9.01;95044.38;4972537;28;19926;-88
2022/07/01 05:29:40;;;;;;;;;;;;;;;53.75;9.38;95043.59;4956883;28;20066;-88
2022/07/01 05:32:05;;;;;;;;;;;;;;;54.26;8.80;95033.75;4953919;28;19926;-88
2022/07/01 05:34:30;;;;;;;;;;;;;;;54.56;8.62;95035.88;5011066;23;19945;-88
2022/07/01 05:36:56;;;;;;;;;;;;;;;54.90;8.48;95034.38;5002642;28;20404;-87
2022/07/01 05:39:21;;;;;;;;;;;;;;;55.41;7.85;95038.25;5002764;28;19928;-88
2022/07/01 05:41:47;;;;;;;;;;;;;;;55.63;7.50;95039.31;5017461;28;19971;-87
2022/07/01 05:44:12;;;;;;;;;;;;;;;55.94;8.06;95037.97;5081034;23;19932;-88
2022/07/01 05:46:37;;;;;;;;;;;;;;;56.06;7.29;95038.59;5004380;28;20003;-88
2022/07/01 05:49:03;;;;;;;;;;;;;;;55.93;8.03;95030.88;5168314;23;19926;-89
2022/07/01 05:51:28;;;;;;;;;;;;;;;56.08;7.57;95025.59;4987511;28;19933;-87
2022/07/01 05:53:55;;;;;;;;;;;;;;;56.22;7.70;95030.00;4998413;28;20386;-88
2022/07/01 05:56:21;;;;;;;;;;;;;;;56.33;7.76;95033.94;4993196;28;19976;-88
2022/07/01 05:58:47;;;;;;;;;;;;;;;56.37;7.80;95028.81;4992632;28;19958;-88
2022/07/01 06:01:12;;;;;;;;;;;;;;;56.56;7.65;95024.72;4993702;28;20330;-89
2022/07/01 06:06:09;;;;;;;;;;;;;;;56.81;7.34;95033.72;5217579;23;20386;-88
2022/07/01 06:11:54;;;;;;;;;;;;;;;57.28;6.91;95033.22;5037279;23;19975;-89
2022/07/01 06:14:20;;;;;;;;;;;;;;;57.52;6.92;95028.75;5027203;28;19917;-89
2022/07/01 06:16:45;;;;;;;;;;;;;;;57.65;7.00;95035.09;5039314;28;19921;-88
2022/07/01 06:19:10;;;;;;;;;;;;;;;57.54;7.04;95029.72;5027540;28;19921;-88
2022/07/01 06:21:36;;;;;;;;;;;;;;;57.68;6.94;95033.25;5049225;28;20401;-86
2022/07/01 06:24:01;;;;;;;;;;;;;;;57.70;6.66;95039.06;5032028;28;19956;-87
2022/07/01 06:26:27;;;;;;;;;;;;;;;57.34;6.97;95036.69;5019979;28;20562;-86
2022/07/01 06:28:52;;;;;;;;;;;;;;;57.21;7.49;95035.91;5023244;28;19922;-86
2022/07/01 06:31:18;;;;;;;;;;;;;;;56.66;7.89;95033.47;5027263;28;19929;-84
2022/07/01 06:33:43;;;;;;;;;;;;;;;56.36;7.52;95024.50;5026018;28;20290;-83
2022/07/01 06:36:08;;;;;;;;;;;;;;;55.55;8.00;95022.41;5021583;28;19928;-83
2022/07/01 06:38:33;;;;;;;;;;;;;;;54.91;8.30;95024.00;5019281;28;19930;-83
2022/07/01 06:43:46;;;;;;;;;;;;;;;53.71;9.44;95029.94;5018473;28;20011;-82
2022/07/01 06:46:11;;;;;;;;;;;;;;;53.70;9.34;95022.09;5028827;28;19953;-80
2022/07/01 06:48:36;;;;;;;;;;;;;;;52.34;9.73;95012.22;5023271;28;19921;-79
2022/07/01 06:51:02;;;;;;;;;;;;;;;51.77;10.39;95020.84;5021182;28;19921;-80
2022/07/01 06:53:27;;;;;;;;;;;;;;;51.83;10.55;95016.84;5018755;28;19922;-80
2022/07/01 06:55:53;;;;;;;;;;;;;;;51.52;10.68;95014.91;5020904;28;19988;-80
2022/07/01 06:58:18;;;;;;;;;;;;;;;51.07;11.00;95013.84;5020057;28;19925;-81
2022/07/01 07:00:44;;;;;;;;;;;;;;;50.24;11.38;95011.78;5019830;28;19921;-79
2022/07/01 07:03:09;;;;;;;;;;;;;;;50.23;11.72;95013.03;5001030;28;19925;-80
2022/07/01 07:05:34;;;;;;;;;;;;;;;49.28;12.09;95018.03;5019909;28;20021;-80
2022/07/01 07:07:59;;;;;;;;;;;;;;;48.68;13.00;95022.13;5017376;28;19918;-80
2022/07/01 07:10:25;;;;;;;;;;;;;;;47.63;13.49;95018.00;5019517;28;20381;-79
2022/07/01 07:15:22;;;;;;;;;;;;;;;45.90;15.09;95017.16;5017780;23;19930;-80
2022/07/01 07:17:47;;;;;;;;;;;;;;;44.68;15.24;95028.56;5010185;28;20896;-80
2022/07/01 07:20:12;;;;;;;;;;;;;;;44.02;16.72;95023.78;5005966;28;19926;-79
2022/07/01 07:22:38;;;;;;;;;;;;;;;43.57;17.39;95018.59;4989327;28;20028;-80
2022/07/01 07:25:03;;;;;;;;;;;;;;;43.17;17.75;95015.56;5006548;28;20048;-81
2022/07/01 07:27:28;;;;;;;;;;;;;;;42.57;18.20;95015.38;4993448;28;20386;-80
2022/07/01 07:29:54;;;;;;;;;;;;;;;41.80;18.68;95016.22;5008594;28;19925;-80
2022/07/01 07:32:19;;;;;;;;;;;;;;;41.34;19.50;95020.84;5008082;28;20397;-80
2022/07/01 07:34:44;;;;;;;;;;;;;;;40.63;19.67;95019.63;4989419;28;19961;-80
2022/07/01 07:37:10;;;;;;;;;;;;;;;40.14;20.39;95019.38;5007538;28;19921;-80
2022/07/01 07:39:35;;;;;;;;;;;;;;;39.72;21.15;95015.44;4986276;28;20009;-80
2022/07/01 07:42:01;;;;;;;;;;;;;;;39.50;21.15;95018.47;5005895;28;19922;-80
2022/07/01 07:44:26;;;;;;;;;;;;;;;39.08;22.43;95016.41;5007424;28;19948;-79
2022/07/01 07:46:52;;;;;;;;;;;;;;;38.75;22.45;95009.88;4986847;28;19929;-80
2022/07/01 07:49:17;;;;;;;;;;;;;;;38.41;22.93;95011.44;5004896;28;19925;-80
2022/07/01 07:51:43;;;;;;;;;;;;;;;37.99;23.33;95009.91;4988142;28;19933;-80
2022/07/01 07:54:08;;;;;;;;;;;;;;;37.67;23.47;95009.41;4988738;28;19921;-80
2022/07/01 07:56:36;;;;;;;;;;;;;;;37.30;25.00;95008.16;5006113;28;20020;-79
2022/07/01 07:59:02;;;;;;;;;;;;;;;37.06;24.54;95014.50;5004821;28;19972;-79
2022/07/01 08:01:27;;;;;;;;;;;;;;;36.92;24.79;95007.22;5007526;28;19921;-81
2022/07/01 08:03:56;;;;;;;;;;;;;;;36.94;24.23;95013.03;4988541;28;20072;-87
2022/07/01 08:06:21;;;;;;;;;;;;;;;37.03;24.89;95004.44;4988793;28;19940;-87
2022/07/01 08:08:46;;;;;;;;;;;;;;;37.16;25.23;95000.88;4992669;28;19925;-86
2022/07/01 08:11:12;;;;;;;;;;;;;;;37.12;24.20;95000.13;4976048;28;20021;-84
2022/07/01 08:13:38;;;;;;;;;;;;;;;37.20;25.07;94998.13;4991358;28;19985;-86
2022/07/01 08:16:04;;;;;;;;;;;;;;;37.25;24.97;95000.41;4990337;28;19945;-83
2022/07/01 08:18:29;;;;;;;;;;;;;;;37.21;25.25;94994.25;4992187;28;19926;-83
2022/07/01 08:20:54;;;;;;;;;;;;;;;37.11;24.16;94995.13;4997384;28;19948;-83
2022/07/01 08:23:20;;;;;;;;;;;;;;;37.04;25.08;94992.44;4995348;28;20443;-82
2022/07/01 08:25:46;;;;;;;;;;;;;;;37.00;24.60;94983.56;5001917;28;20516;-82
2022/07/01 08:28:11;;;;;;;;;;;;;;;36.90;25.41;94985.16;4995771;28;19948;-83
2022/07/01 08:31:17;;;;;;;;;;;;;;;36.87;25.50;94981.31;5013703;28;19925;-85
2022/07/01 08:33:43;;;;;;;;;;;;;;;36.73;25.69;94978.66;4998829;28;20012;-83
2022/07/01 08:36:08;;;;;;;;;;;;;;;36.64;25.67;94979.09;5001834;28;19932;-85
2022/07/01 08:38:34;;;;;;;;;;;;;;;36.58;26.59;94979.91;5001550;28;19960;-83
2022/07/01 08:41:00;;;;;;;;;;;;;;;36.43;26.04;94979.19;5018757;28;19925;-82
2022/07/01 08:43:26;;;;;;;;;;;;;;;36.38;26.58;94982.31;5004388;28;19937;-83
2022/07/01 08:45:51;;;;;;;;;;;;;;;36.14;27.08;94983.94;5003999;28;20942;-83
2022/07/01 08:48:16;;;;;;;;;;;;;;;36.08;25.98;94980.06;5004687;28;20028;-83
2022/07/01 08:50:44;;;;;;;;;;;;;;;35.97;26.17;94977.41;5004497;28;20753;-83
2022/07/01 08:53:10;;;;;;;;;;;;;;;35.94;25.93;94980.09;5031179;23;19926;-83
2022/07/01 08:58:21;;;;;;;;;;;;;;;35.57;25.40;94978.59;4972922;28;20473;-83
2022/07/01 09:00:49;;;;;;;;;;;;;;;35.56;26.32;94981.69;4984715;28;19922;-83
2022/07/01 09:03:14;;;;;;;;;;;;;;;35.52;27.43;94976.28;4995826;28;19929;-83
2022/07/01 09:05:40;;;;;;;;;;;;;;;35.51;27.03;94979.38;4983796;28;19926;-83
2022/07/01 09:08:05;;;;;;;;;;;;;;;35.44;26.90;94975.50;4957558;28;19922;-83
2022/07/01 09:10:33;;;;;;;;;;;;;;;35.38;27.04;94974.38;4987629;28;19922;-84
2022/07/01 09:13:03;;;;;;;;;;;;;;;35.35;27.20;94977.03;4974625;28;19926;-83
2022/07/01 09:15:31;;;;;;;;;;;;;;;35.25;26.36;94978.59;4971663;28;19906;-83
2022/07/01 09:18:05;;;;;;;;;;;;;;;35.12;27.22;94980.88;5014075;28;19949;-83
2022/07/01 09:20:34;;;;;;;;;;;;;;;35.05;26.91;94980.88;4997612;28;19918;-83
2022/07/01 09:23:12;;;;;;;;;;;;;;;35.03;27.30;94977.81;4969838;28;19918;-83
2022/07/01 09:25:45;;;;;;;;;;;;;;;34.98;26.55;94980.88;4985581;28;19925;-83
2022/07/01 09:28:12;;;;;;;;;;;;;;;34.90;27.21;94976.63;4983954;28;19933;-83
2022/07/01 09:30:37;;;;;;;;;;;;;;;34.77;26.79;94978.09;4986989;23;19926;-83
2022/07/01 09:33:05;;;;;;;;;;;;;;;34.44;25.80;94979.94;4991327;28;19926;-83
2022/07/01 09:35:31;;;;;;;;;;;;;;;34.30;27.33;94974.47;4986477;28;19942;-83
2022/07/01 09:37:56;;;;;;;;;;;;;;;34.11;27.45;94978.22;5033409;23;19926;-83
2022/07/01 09:40:22;;;;;;;;;;;;;;;34.15;26.30;94976.31;5036124;28;20071;-82
2022/07/01 09:42:47;;;;;;;;;;;;;;;34.19;27.20;94968.25;5212995;23;20018;-82
2022/07/01 09:45:12;;;;;;;;;;;;;;;34.08;25.48;94968.19;4992098;28;19933;-81
2022/07/01 09:47:42;;;;;;;;;;;;;;;33.85;25.97;94963.09;4993157;28;19922;-83
2022/07/01 09:50:08;;;;;;;;;;;;;;;33.74;27.11;94970.31;4991455;28;19956;-82
2022/07/01 09:52:34;;;;;;;;;;;;;;;33.68;26.53;94963.69;5016940;28;19922;-82
2022/07/01 09:54:59;;;;;;;;;;;;;;;33.68;26.72;94958.31;5007112;23;19925;-82
2022/07/01 09:57:24;;;;;;;;;;;;;;;33.64;27.61;94950.19;5007003;23;19961;-82
2022/07/01 09:59:50;;;;;;;;;;;;;;;33.62;27.55;94951.72;4983631;28;19929;-82
2022/07/01 10:02:18;;;;;;;;;;;;;;;33.55;26.11;94946.28;4982750;28;19932;-83
2022/07/01 10:04:53;;;;;;;;;;;;;;;33.29;26.64;94939.91;4985741;28;19961;-82
2022/07/01 10:07:19;;;;;;;;;;;;;;;33.20;26.88;94942.16;4987891;28;19922;-82
2022/07/01 10:10:19;;;;;;;;;;;;;;;33.07;26.22;94938.22;4986848;28;20012;-82
2022/07/01 10:12:51;;;;;;;;;;;;;;;33.01;26.22;94945.06;4905244;29;19979;-82
2022/07/01 10:15:17;;;;;;;;;;;;;;;32.81;24.88;94950.66;4968569;28;20017;-82
2022/07/01 10:17:44;;;;;;;;;;;;;;;32.80;25.60;94946.44;4984047;28;20384;-81
2022/07/01 10:20:13;;;;;;;;;;;;;;;32.89;26.27;94931.91;4983572;28;19930;-81
2022/07/01 10:22:39;;;;;;;;;;;;;;;32.99;25.61;94941.97;4984843;28;19922;-81
2022/07/01 10:25:23;;;;;;;;;;;;;;;32.90;22.80;94922.66;4970093;28;19933;-81
2022/07/01 10:28:08;;;;;;;;;;;;;;;32.82;23.75;94927.22;4982745;28;19925;-81
2022/07/01 10:30:33;;;;;;;;;;;;;;;32.89;28.39;94931.91;4957620;28;19922;-74
2022/07/01 10:32:59;;;;;;;;;;;;;;;32.80;25.14;94930.28;4972175;28;19937;-75
2022/07/01 10:35:24;;;;;;;;;;;;;;;32.84;28.38;94923.00;4972524;28;20433;-75
2022/07/01 10:37:56;;;;;;;;;;;;;;;32.81;28.35;94914.88;4972339;28;19930;-75
2022/07/01 10:40:29;;;;;;;;;;;;;;;32.68;22.63;94921.66;4954966;28;19972;-76
2022/07/01 10:42:58;;;;;;;;;;;;;;;32.66;27.67;94919.34;4970883;28;19958;-75
2022/07/01 10:45:23;;;;;;;;;;;;;;;32.60;24.83;94903.91;4971779;28;19957;-75
2022/07/01 10:47:48;;;;;;;;;;;;;;;32.47;22.74;94906.06;4970786;28;19976;-75
2022/07/01 10:50:16;;;;;;;;;;;;;;;32.42;26.71;94914.50;4972296;28;19922;-75
2022/07/01 10:53:00;;;;;;;;;;;;;;;32.36;26.13;94894.41;4955057;28;20368;-75
2022/07/01 10:55:35;;;;;;;;;;;;;;;32.32;24.02;94896.31;4970981;28;19922;-76
2022/07/01 10:58:00;;;;;;;;;;;;;;;32.30;27.57;94906.66;4971994;28;19930;-75
2022/07/01 11:00:30;;;;;;;;;;;;;;;32.26;27.17;94895.84;4970719;28;19922;-76
2022/07/01 11:02:55;;;;;;;;;;;;;;;32.17;22.89;94898.81;4970980;28;20000;-75
2022/07/01 11:05:20;;;;;;;;;;;;;;;32.16;22.37;94908.00;4970732;28;20366;-75
2022/07/01 11:07:46;;;;;;;;;;;;;;;32.16;25.24;94905.31;4970894;28;19922;-75
2022/07/01 11:10:11;;;;;;;;;;;;;;;32.15;22.69;94903.78;4954745;28;19961;-77
2022/07/01 11:12:43;;;;;;;;;;;;;;;32.18;27.05;94897.66;4969827;28;20343;-75
2022/07/01 11:15:10;;;;;;;;;;;;;;;32.19;25.34;94893.81;4971047;28;20016;-76
2022/07/01 11:17:36;;;;;;;;;;;;;;;32.24;26.19;94895.44;4971222;28;19926;-75
2022/07/01 11:20:02;;;;;;;;;;;;;;;32.29;26.11;94897.81;4970264;28;19949;-75
2022/07/01 11:22:28;;;;;;;;;;;;;;;32.34;26.71;94891.31;4954422;28;19929;-76
2022/07/01 11:24:58;;;;;;;;;;;;;;;32.38;25.74;94908.28;4969566;28;19926;-76
2022/07/01 11:27:24;;;;;;;;;;;;;;;32.36;22.80;94889.03;4954026;28;19933;-75
2022/07/01 11:29:55;;;;;;;;;;;;;;;32.41;24.24;94889.50;4971000;28;19930;-75
2022/07/01 11:32:26;;;;;;;;;;;;;;;32.39;22.76;94891.78;4969709;28;19926;-75
2022/07/01 11:34:52;;;;;;;;;;;;;;;32.39;25.15;94885.63;4971230;28;19926;-76
2022/07/01 11:40:08;;;;;;;;;;;;;;;32.38;26.17;94881.34;4971461;28;20014;-76
2022/07/01 11:42:33;;;;;;;;;;;;;;;32.33;23.60;94879.00;4970036;28;19922;-76
2022/07/01 11:44:58;;;;;;;;;;;;;;;32.25;22.84;94884.28;4969422;28;19929;-76
2022/07/01 11:47:24;;;;;;;;;;;;;;;32.23;23.82;94875.81;4969053;28;19922;-76
2022/07/01 11:49:50;;;;;;;;;;;;;;;32.28;22.28;94874.75;4954153;28;19929;-76
2022/07/01 11:52:19;;;;;;;;;;;;;;;32.34;23.42;94867.88;4969995;28;19945;-76
2022/07/01 11:54:45;;;;;;;;;;;;;;;32.38;22.58;94871.41;4969578;28;19926;-76
2022/07/01 11:57:14;;;;;;;;;;;;;;;32.58;24.22;94869.28;4953573;28;19922;-76
2022/07/01 11:59:40;;;;;;;;;;;;;;;32.76;22.00;94858.66;4969215;28;19926;-77
2022/07/01 12:02:05;;;;;;;;;;;;;;;32.98;23.64;94865.78;4969690;28;19929;-76
2022/07/01 12:04:30;;;;;;;;;;;;;;;33.16;25.12;94865.91;4970006;28;19922;-75
2022/07/01 12:06:56;;;;;;;;;;;;;;;33.27;20.63;94864.06;4970777;28;20291;-76
2022/07/01 12:09:21;;;;;;;;;;;;;;;33.13;19.92;94861.25;4969763;28;19956;-77
2022/07/01 12:11:47;;;;;;;;;;;;;;;33.21;19.65;94865.56;4970106;28;19973;-76
2022/07/01 12:14:21;;;;;;;;;;;;;;;33.36;23.42;94858.38;4970660;28;19923;-77
2022/07/01 12:16:47;;;;;;;;;;;;;;;33.47;23.38;94861.13;4969926;28;19922;-76
2022/07/01 12:19:12;;;;;;;;;;;;;;;33.52;23.36;94856.16;4953866;28;19929;-76
2022/07/01 12:22:06;;;;;;;;;;;;;;;33.53;22.10;94856.94;4970948;28;19929;-76
2022/07/01 12:24:32;;;;;;;;;;;;;;;33.55;21.65;94846.53;4957054;28;19922;-78
2022/07/01 12:26:57;;;;;;;;;;;;;;;33.57;23.49;94857.72;4969046;28;19933;-76
2022/07/01 12:29:23;;;;;;;;;;;;;;;33.44;21.34;94849.16;4968586;28;19929;-76
2022/07/01 12:32:01;;;;;;;;;;;;;;;33.00;22.10;94843.84;4952289;28;19922;-76
2022/07/01 12:34:40;;;;;;;;;;;;;;;32.75;22.41;94847.09;4967710;28;19984;-76
2022/07/01 12:37:13;;;;;;;;;;;;;;;32.93;24.68;94849.19;4969118;28;19996;-76
2022/07/01 12:40:05;;;;;;;;;;;;;;;33.06;23.22;94850.44;4971676;28;19937;-76
2022/07/01 12:42:30;;;;;;;;;;;;;;;33.10;24.34;94849.31;4963744;28;19950;-76
2022/07/01 12:44:56;;;;;;;;;;;;;;;33.15;24.54;94853.56;4971119;28;19926;-76
2022/07/01 12:47:32;;;;;;;;;;;;;;;33.16;24.91;94843.56;4973782;28;19965;-76
2022/07/01 12:50:16;;;;;;;;;;;;;;;33.15;23.06;94837.41;4974939;28;19926;-75
2022/07/01 12:53:01;;;;;;;;;;;;;;;33.16;23.60;94847.03;4956163;28;20009;-76
2022/07/01 12:55:26;;;;;;;;;;;;;;;33.09;21.34;94838.91;4971987;28;19929;-76
2022/07/01 12:57:54;;;;;;;;;;;;;;;33.11;24.50;94844.69;4972895;28;19927;-76
2022/07/01 13:00:20;;;;;;;;;;;;;;;32.90;19.88;94842.63;4974440;28;20504;-76
2022/07/01 13:02:46;;;;;;;;;;;;;;;32.91;21.78;94838.78;4972733;28;19922;-75
2022/07/01 13:05:11;;;;;;;;;;;;;;;32.79;21.32;94839.81;4970330;28;20001;-76
2022/07/01 13:07:37;;;;;;;;;;;;;;;32.61;20.53;94836.22;4968555;28;19933;-75
2022/07/01 13:10:02;;;;;;;;;;;;;;;32.59;21.49;94838.50;4972855;28;19926;-76
2022/07/01 13:12:28;;;;;;;;;;;;;;;32.56;25.03;94839.25;4971634;28;19933;-76
2022/07/01 13:14:54;;;;;;;;;;;;;;;32.20;25.52;94846.16;4969922;28;20374;-76
2022/07/01 13:17:21;;;;;;;;;;;;;;;32.08;26.34;94841.84;4938917;28;19940;-75
2022/07/01 13:19:47;;;;;;;;;;;;;;;32.06;26.38;94837.97;4970122;28;19925;-76
2022/07/01 13:22:12;;;;;;;;;;;;;;;32.06;26.80;94840.66;4970663;28;19955;-76
2022/07/01 13:24:37;;;;;;;;;;;;;;;32.05;26.71;94837.16;4971397;28;19933;-76
2022/07/01 13:27:03;;;;;;;;;;;;;;;32.07;26.89;94839.53;4971999;28;19929;-76
2022/07/01 13:29:28;;;;;;;;;;;;;;;31.99;27.20;94838.66;4970249;28;19926;-76